createdAt,value
2022-11-29T00:01:37.973Z,20.05
2022-11-29T00:04:05.708Z,27.20
2022-11-29T00:06:33.967Z,16.52
2022-11-29T00:09:07.734Z,19.75
2022-11-29T00:11:56.861Z,14.82
2022-11-29T00:14:25.752Z,17.35
2022-11-29T00:16:58.653Z,18.40
2022-11-29T00:19:25.777Z,15.27
2022-11-29T00:21:52.991Z,15.88
2022-11-29T00:24:20.804Z,20.67
2022-11-29T00:26:48.172Z,23.80
2022-11-29T00:29:18.270Z,18.05
2022-11-29T00:31:45.552Z,16.63
2022-11-29T00:34:12.831Z,21.85
2022-11-29T00:36:40.375Z,17.05
2022-11-29T00:39:11.102Z,20.25
2022-11-29T00:41:38.741Z,18.65
2022-11-29T00:44:06.085Z,21.25
2022-11-29T00:46:33.454Z,16.63
2022-11-29T00:49:00.784Z,16.85
2022-11-29T00:51:28.225Z,18.80
2022-11-29T00:53:55.355Z,15.05
2022-11-29T00:56:22.611Z,18.70
2022-11-29T00:58:49.762Z,14.65
2022-11-29T01:01:17.235Z,15.20
2022-11-29T01:03:44.545Z,19.00
2022-11-29T01:06:15.005Z,16.65
2022-11-29T01:08:44.955Z,28.02
2022-11-29T01:11:15.213Z,18.55
2022-11-29T01:13:42.629Z,13.60
2022-11-29T01:16:10.446Z,15.73
2022-11-29T01:18:38.100Z,13.80
2022-11-29T01:21:19.113Z,16.13
2022-11-29T01:23:49.037Z,12.60
2022-11-29T01:26:25.575Z,16.45
2022-11-29T01:28:56.199Z,12.82
2022-11-29T01:31:30.824Z,15.38
2022-11-29T01:34:01.248Z,18.10
2022-11-29T01:36:29.322Z,14.80
2022-11-29T01:39:02.820Z,20.77
2022-11-29T01:41:33.231Z,14.00
2022-11-29T01:44:11.594Z,15.05
2022-11-29T01:46:47.803Z,15.38
2022-11-29T01:49:35.199Z,12.80
2022-11-29T01:52:18.952Z,14.30
2022-11-29T01:54:51.546Z,13.15
2022-11-29T01:57:20.229Z,15.07
2022-11-29T01:59:54.134Z,15.00
2022-11-29T02:02:52.296Z,14.23
2022-11-29T02:05:20.779Z,11.85
2022-11-29T02:07:52.920Z,13.43
2022-11-29T02:10:52.229Z,10.43
2022-11-29T02:13:37.650Z,12.13
2022-11-29T02:16:22.658Z,10.77
2022-11-29T02:19:03.449Z,11.05
2022-11-29T02:21:38.878Z,8.50
2022-11-29T02:24:26.985Z,10.85
2022-11-29T02:27:22.072Z,16.02
2022-11-29T02:30:11.720Z,16.20
2022-11-29T02:33:11.604Z,13.10
2022-11-29T02:36:06.965Z,9.20
2022-11-29T02:39:14.135Z,11.38
2022-11-29T02:42:18.327Z,11.45
2022-11-29T02:45:05.807Z,13.75
2022-11-29T02:48:15.015Z,9.85
2022-11-29T02:51:10.959Z,10.45
2022-11-29T02:53:57.540Z,11.40
2022-11-29T02:56:59.593Z,9.95
2022-11-29T03:00:08.962Z,10.93
2022-11-29T03:02:53.032Z,10.68
2022-11-29T03:05:30.328Z,15.02
2022-11-29T03:08:28.045Z,12.95
2022-11-29T03:10:57.032Z,12.63
2022-11-29T03:14:12.654Z,14.75
2022-11-29T03:17:19.611Z,10.55
2022-11-29T03:20:34.093Z,11.07
2022-11-29T03:23:36.470Z,9.27
2022-11-29T03:26:26.086Z,8.40
2022-11-29T03:29:09.083Z,10.50
2022-11-29T03:31:45.653Z,11.55
2022-11-29T03:34:53.008Z,9.40
2022-11-29T03:38:07.565Z,7.82
2022-11-29T03:40:57.392Z,8.35
2022-11-29T03:43:40.862Z,10.95
2022-11-29T03:46:39.636Z,7.22
2022-11-29T03:49:26.097Z,9.17
2022-11-29T03:52:26.077Z,10.93
2022-11-29T03:55:21.388Z,7.10
2022-11-29T03:58:19.228Z,11.48
2022-11-29T04:00:59.755Z,14.02
2022-11-29T04:03:38.957Z,9.32
2022-11-29T04:06:27.705Z,11.40
2022-11-29T04:09:48.442Z,8.97
2022-11-29T04:12:33.749Z,9.30
2022-11-29T04:15:37.505Z,16.60
2022-11-29T04:18:41.496Z,7.88
2022-11-29T04:21:30.658Z,6.28
2022-11-29T04:24:28.063Z,7.00
2022-11-29T04:27:35.742Z,6.00
2022-11-29T04:30:19.973Z,7.03
2022-11-29T04:32:52.804Z,7.47
2022-11-29T04:35:54.584Z,10.55
2022-11-29T04:39:02.284Z,9.10
2022-11-29T04:41:42.424Z,8.85
2022-11-29T04:44:40.538Z,9.80
2022-11-29T04:47:29.199Z,9.50
2022-11-29T04:50:05.051Z,7.50
2022-11-29T04:53:24.964Z,6.47
2022-11-29T04:56:38.044Z,5.97
2022-11-29T04:59:50.239Z,10.82
2022-11-29T05:03:06.493Z,10.63
2022-11-29T05:05:46.383Z,10.57
2022-11-29T05:08:58.185Z,14.18
2022-11-29T05:12:02.397Z,13.63
2022-11-29T05:14:48.533Z,15.73
2022-11-29T05:17:56.223Z,11.65
2022-11-29T05:21:29.187Z,9.60
2022-11-29T05:24:47.743Z,16.27
2022-11-29T05:27:48.079Z,7.18
2022-11-29T05:30:20.308Z,10.93
2022-11-29T05:33:08.560Z,13.60
2022-11-29T05:36:10.717Z,17.13
2022-11-29T05:38:56.405Z,14.40
2022-11-29T05:42:04.210Z,22.27
2022-11-29T05:44:38.519Z,21.02
2022-11-29T05:47:09.560Z,43.25
2022-11-29T05:50:10.383Z,41.85
2022-11-29T05:53:20.582Z,13.85
2022-11-29T05:56:17.614Z,14.82
2022-11-29T05:58:56.321Z,10.95
2022-11-29T06:01:44.387Z,14.75
2022-11-29T06:04:53.170Z,12.35
2022-11-29T06:07:56.625Z,14.23
2022-11-29T06:10:51.457Z,19.85
2022-11-29T06:13:40.125Z,22.30
2022-11-29T06:17:01.416Z,21.10
2022-11-29T06:19:56.036Z,27.30
2022-11-29T06:22:48.362Z,39.35
2022-11-29T06:26:03.502Z,36.95
2022-11-29T06:29:01.257Z,35.05
2022-11-29T06:31:43.347Z,33.00
2022-11-29T06:34:16.346Z,44.83
2022-11-29T06:36:55.267Z,41.88
2022-11-29T06:39:22.963Z,47.03
2022-11-29T06:41:50.151Z,43.97
2022-11-29T06:44:17.704Z,28.75
2022-11-29T06:47:16.830Z,29.88
2022-11-29T06:49:53.688Z,14.50
2022-11-29T06:52:57.747Z,19.65
2022-11-29T06:55:56.469Z,24.13
2022-11-29T06:58:42.977Z,16.87
2022-11-29T07:01:18.795Z,19.13
2022-11-29T07:04:13.318Z,15.18
2022-11-29T07:06:41.011Z,22.52
2022-11-29T07:09:19.153Z,26.20
2022-11-29T07:11:47.593Z,23.65
2022-11-29T07:14:15.174Z,35.70
2022-11-29T07:17:22.856Z,34.90
2022-11-29T07:20:20.036Z,24.23
2022-11-29T07:23:10.634Z,22.27
2022-11-29T07:26:02.678Z,25.70
2022-11-29T07:29:07.340Z,25.98
2022-11-29T07:31:46.430Z,20.10
2022-11-29T07:34:38.249Z,23.60
2022-11-29T07:37:20.197Z,43.38
2022-11-29T07:40:14.697Z,27.95
2022-11-29T07:43:00.176Z,27.85
2022-11-29T07:45:36.390Z,45.83
2022-11-29T07:48:04.392Z,35.25
2022-11-29T07:50:31.900Z,33.83
2022-11-29T07:52:59.569Z,28.48
2022-11-29T07:55:27.177Z,25.63
2022-11-29T07:57:54.589Z,28.40
2022-11-29T08:00:22.299Z,21.63
2022-11-29T08:02:50.312Z,37.25
2022-11-29T08:05:18.104Z,28.40
2022-11-29T08:07:46.850Z,23.70
2022-11-29T08:10:16.791Z,31.87
2022-11-29T08:15:14.666Z,28.40
2022-11-29T08:17:41.955Z,25.10
2022-11-29T08:20:11.501Z,20.40
2022-11-29T08:22:38.643Z,20.42
2022-11-29T08:25:08.143Z,16.75
2022-11-29T08:27:36.652Z,21.60
2022-11-29T08:30:06.024Z,18.17
2022-11-29T08:32:33.885Z,19.60
2022-11-29T08:35:01.113Z,27.15
2022-11-29T08:37:28.538Z,17.88
2022-11-29T08:39:57.747Z,21.27
2022-11-29T08:42:25.032Z,18.73
2022-11-29T08:44:52.204Z,22.73
2022-11-29T08:47:37.822Z,18.67
2022-11-29T08:50:07.563Z,26.05
2022-11-29T08:55:26.182Z,12.43
2022-11-29T08:57:59.852Z,19.83
2022-11-29T09:00:27.040Z,12.50
2022-11-29T09:02:54.216Z,11.25
2022-11-29T09:05:21.346Z,18.08
2022-11-29T09:07:48.558Z,28.80
2022-11-29T09:10:15.823Z,18.23
2022-11-29T09:12:44.183Z,13.32
2022-11-29T09:15:12.012Z,17.80
2022-11-29T09:17:39.172Z,22.73
2022-11-29T09:20:07.766Z,14.75
2022-11-29T09:22:34.910Z,18.38
2022-11-29T09:25:02.157Z,20.83
2022-11-29T09:27:34.281Z,11.63
2022-11-29T09:30:04.480Z,15.02
2022-11-29T09:32:34.003Z,16.00
2022-11-29T09:35:20.393Z,15.88
2022-11-29T09:38:00.108Z,14.05
2022-11-29T09:44:41.470Z,15.68
2022-11-29T09:47:42.042Z,12.80
2022-11-29T09:50:28.112Z,14.07
2022-11-29T09:53:25.899Z,12.88
2022-11-29T09:56:19.944Z,8.75
2022-11-29T09:58:59.609Z,11.88
2022-11-29T10:01:36.294Z,21.73
2022-11-29T10:04:18.246Z,12.45
2022-11-29T10:07:06.764Z,16.58
2022-11-29T10:09:45.826Z,8.43
2022-11-29T10:12:29.254Z,10.90
2022-11-29T10:15:28.830Z,8.80
2022-11-29T10:18:18.494Z,17.88
2022-11-29T10:23:38.157Z,25.77
2022-11-29T10:26:07.456Z,29.00
2022-11-29T10:28:36.835Z,15.95
2022-11-29T10:31:35.644Z,17.30
2022-11-29T10:34:30.376Z,11.18
2022-11-29T10:37:00.811Z,12.32
2022-11-29T10:40:07.235Z,11.82
2022-11-29T10:42:49.745Z,8.38
2022-11-29T10:45:49.978Z,11.25
2022-11-29T10:48:33.168Z,12.07
2022-11-29T10:51:01.480Z,11.60
2022-11-29T10:53:36.722Z,11.85
2022-11-29T10:56:13.348Z,8.20
2022-11-29T10:59:07.352Z,6.60
2022-11-29T11:01:42.396Z,9.10
2022-11-29T11:04:41.827Z,10.45
2022-11-29T11:07:30.461Z,10.48
2022-11-29T11:09:58.862Z,12.57
2022-11-29T11:12:33.224Z,12.20
2022-11-29T11:15:28.935Z,12.07
2022-11-29T11:18:06.297Z,9.57
2022-11-29T11:20:39.287Z,64.05
2022-11-29T11:23:28.502Z,45.58
2022-11-29T11:26:04.489Z,26.67
2022-11-29T11:28:58.956Z,42.85
2022-11-29T11:31:37.570Z,34.63
2022-11-29T11:34:27.119Z,26.00
2022-11-29T11:39:42.589Z,24.50
2022-11-29T11:42:38.964Z,14.05
2022-11-29T11:45:12.235Z,12.90
2022-11-29T11:47:42.783Z,8.18
2022-11-29T11:50:36.910Z,8.30
2022-11-29T11:53:37.167Z,11.35
2022-11-29T11:56:09.540Z,9.75
2022-11-29T11:58:57.570Z,13.88
2022-11-29T12:01:37.326Z,11.77
2022-11-29T12:04:33.114Z,6.75
2022-11-29T12:07:38.688Z,6.80
2022-11-29T12:10:26.397Z,5.67
2022-11-29T12:12:55.354Z,17.70
2022-11-29T12:15:37.617Z,26.60
2022-11-29T12:18:20.680Z,11.73
2022-11-29T12:21:06.776Z,11.25
2022-11-29T12:23:55.137Z,86.93
2022-11-29T12:26:56.012Z,27.42
2022-11-29T12:29:18.118Z,19.58
2022-11-29T12:31:58.244Z,16.75
2022-11-29T12:34:53.077Z,13.15
2022-11-29T12:37:35.430Z,23.45
2022-11-29T12:40:35.265Z,25.15
2022-11-29T12:43:36.875Z,20.55
2022-11-29T12:46:24.384Z,22.67
2022-11-29T12:49:20.562Z,86.45
2022-11-29T12:51:53.483Z,57.67
2022-11-29T12:54:37.644Z,41.08
2022-11-29T12:57:37.283Z,29.52
2022-11-29T13:03:17.188Z,25.90
2022-11-29T13:06:22.784Z,11.93
2022-11-29T13:09:14.557Z,9.13
2022-11-29T13:11:49.562Z,12.27
2022-11-29T13:14:56.284Z,16.90
2022-11-29T13:17:56.906Z,16.38
2022-11-29T13:21:05.572Z,21.63
2022-11-29T13:24:07.722Z,12.65
2022-11-29T13:26:34.127Z,12.98
2022-11-29T13:29:02.923Z,7.35
2022-11-29T13:31:31.461Z,8.20
2022-11-29T13:34:11.797Z,4.45
2022-11-29T13:37:07.013Z,4.50
2022-11-29T13:40:36.741Z,4.32
2022-11-29T13:46:18.997Z,7.00
2022-11-29T13:48:48.084Z,8.43
2022-11-29T13:51:37.409Z,8.45
2022-11-29T13:54:28.352Z,12.40
2022-11-29T13:57:08.330Z,32.40
2022-11-29T13:59:44.271Z,10.48
2022-11-29T14:02:30.697Z,12.50
2022-11-29T14:04:58.538Z,9.63
2022-11-29T14:07:25.762Z,16.15
2022-11-29T14:10:04.484Z,12.07
2022-11-29T14:12:39.395Z,21.60
2022-11-29T14:15:30.663Z,23.92
2022-11-29T14:18:08.766Z,21.08
2022-11-29T14:20:39.021Z,23.27
2022-11-29T14:23:06.232Z,10.45
2022-11-29T14:25:56.026Z,12.30
2022-11-29T14:28:23.099Z,12.05
2022-11-29T14:30:55.052Z,12.45
2022-11-29T14:33:39.933Z,11.60
2022-11-29T14:36:36.878Z,11.43
2022-11-29T14:39:47.308Z,10.52
2022-11-29T14:42:22.502Z,13.20
2022-11-29T14:44:53.484Z,13.68
2022-11-29T14:47:34.915Z,13.38
2022-11-29T14:50:08.336Z,11.50
2022-11-29T14:52:49.316Z,11.15
2022-11-29T14:55:16.329Z,13.07
2022-11-29T14:58:03.300Z,18.05
2022-11-29T15:00:52.186Z,29.63
2022-11-29T15:03:36.141Z,42.15
2022-11-29T15:06:22.656Z,23.67
2022-11-29T15:09:14.283Z,21.25
2022-11-29T15:11:57.966Z,20.00
2022-11-29T15:14:37.045Z,23.17
2022-11-29T15:17:24.857Z,21.70
2022-11-29T15:20:16.357Z,25.92
2022-11-29T15:22:54.140Z,39.83
2022-11-29T15:25:25.795Z,18.20
2022-11-29T15:28:05.362Z,14.85
2022-11-29T15:30:40.786Z,14.43
2022-11-29T15:33:22.114Z,12.80
2022-11-29T15:36:02.175Z,14.43
2022-11-29T15:38:29.524Z,17.50
2022-11-29T15:40:57.901Z,16.50
2022-11-29T15:43:37.205Z,19.65
2022-11-29T15:46:04.423Z,16.13
2022-11-29T15:48:33.118Z,16.67
2022-11-29T15:51:04.941Z,19.73
2022-11-29T15:54:10.137Z,25.80
2022-11-29T15:56:39.638Z,25.23
2022-11-29T15:59:47.537Z,25.02
2022-11-29T16:02:29.758Z,28.90
2022-11-29T16:05:10.269Z,33.38
2022-11-29T16:07:39.288Z,21.20
2022-11-29T16:10:17.533Z,23.92
2022-11-29T16:13:00.519Z,36.75
2022-11-29T16:15:38.312Z,42.45
2022-11-29T16:18:24.978Z,38.80
2022-11-29T16:21:00.416Z,68.95
2022-11-29T16:23:43.247Z,51.28
2022-11-29T16:26:18.473Z,40.60
2022-11-29T16:28:48.983Z,39.53
2022-11-29T16:31:19.261Z,31.63
2022-11-29T16:33:49.249Z,29.40
2022-11-29T16:36:28.532Z,31.98
2022-11-29T16:39:06.119Z,63.50
2022-11-29T16:41:38.537Z,330.27
2022-11-29T16:44:30.176Z,178.07
2022-11-29T16:47:24.899Z,36.40
2022-11-29T16:50:01.100Z,36.03
2022-11-29T16:52:33.368Z,38.90
2022-11-29T16:55:00.651Z,49.00
2022-11-29T16:57:29.194Z,70.45
2022-11-29T16:59:56.449Z,54.42
2022-11-29T17:02:24.088Z,49.63
2022-11-29T17:04:51.814Z,66.65
2022-11-29T17:07:29.151Z,36.58
2022-11-29T17:09:57.208Z,35.30
2022-11-29T17:12:24.542Z,25.75
2022-11-29T17:14:51.800Z,32.20
2022-11-29T17:17:19.584Z,41.45
2022-11-29T17:19:46.845Z,36.92
2022-11-29T17:22:14.337Z,39.08
2022-11-29T17:24:47.464Z,39.85
2022-11-29T17:27:15.656Z,44.55
2022-11-29T17:29:42.852Z,42.65
2022-11-29T17:32:10.165Z,49.78
2022-11-29T17:34:37.625Z,47.38
2022-11-29T17:37:04.815Z,48.90
2022-11-29T17:39:32.522Z,51.33
2022-11-29T17:41:59.844Z,38.90
2022-11-29T17:44:27.121Z,41.90
2022-11-29T17:46:54.345Z,32.17
2022-11-29T17:49:21.520Z,48.80
2022-11-29T17:51:53.270Z,75.55
2022-11-29T17:54:22.086Z,59.95
2022-11-29T17:56:49.976Z,62.70
2022-11-29T17:59:17.269Z,64.53
2022-11-29T18:01:46.423Z,70.00
2022-11-29T18:04:13.695Z,85.45
2022-11-29T18:06:41.047Z,62.92
2022-11-29T18:09:10.251Z,56.40
2022-11-29T18:11:48.200Z,54.88
2022-11-29T18:14:23.028Z,52.60
2022-11-29T18:16:50.847Z,61.58
2022-11-29T18:19:21.491Z,54.85
2022-11-29T18:21:49.930Z,35.22
2022-11-29T18:24:18.388Z,38.65
2022-11-29T18:26:45.967Z,25.55
2022-11-29T18:29:13.186Z,27.85
2022-11-29T18:31:43.528Z,52.17
2022-11-29T18:34:12.504Z,55.35
2022-11-29T18:36:43.924Z,61.05
2022-11-29T18:39:19.603Z,46.10
2022-11-29T18:41:49.291Z,52.70
2022-11-29T18:44:19.759Z,37.85
2022-11-29T18:46:47.480Z,29.00
2022-11-29T18:49:17.460Z,33.30
2022-11-29T18:51:46.561Z,53.50
2022-11-29T18:54:16.510Z,50.08
2022-11-29T18:56:45.220Z,49.50
2022-11-29T18:59:16.272Z,40.97
2022-11-29T19:01:45.637Z,49.25
2022-11-29T19:04:16.103Z,53.20
2022-11-29T19:06:43.839Z,60.78
2022-11-29T19:09:15.101Z,50.25
2022-11-29T19:11:42.426Z,34.55
2022-11-29T19:14:12.071Z,42.00
2022-11-29T19:16:43.933Z,48.08
2022-11-29T19:19:11.849Z,53.15
2022-11-29T19:21:39.868Z,45.05
2022-11-29T19:24:13.076Z,56.10
2022-11-29T19:26:43.619Z,54.35
2022-11-29T19:29:11.601Z,52.47
2022-11-29T19:31:39.051Z,63.40
2022-11-29T19:34:06.566Z,64.68
2022-11-29T19:36:33.942Z,50.85
2022-11-29T19:39:02.658Z,58.88
2022-11-29T19:41:33.098Z,60.42
2022-11-29T19:44:04.545Z,76.28
2022-11-29T19:46:36.147Z,56.75
2022-11-29T19:49:05.760Z,57.05
2022-11-29T19:51:33.576Z,39.83
2022-11-29T19:54:03.583Z,35.35
2022-11-29T19:56:31.928Z,47.50
2022-11-29T19:58:59.507Z,56.22
2022-11-29T20:01:36.101Z,38.10
2022-11-29T20:04:07.489Z,36.58
2022-11-29T20:06:35.174Z,36.38
2022-11-29T20:09:02.637Z,52.97
2022-11-29T20:11:29.891Z,42.25
2022-11-29T20:14:02.541Z,83.53
2022-11-29T20:16:30.557Z,58.33
2022-11-29T20:18:59.000Z,38.90
2022-11-29T20:21:33.284Z,23.35
2022-11-29T20:24:04.369Z,20.58
2022-11-29T20:26:34.555Z,18.92
2022-11-29T20:29:02.881Z,20.95
2022-11-29T20:31:33.512Z,34.40
2022-11-29T20:34:01.989Z,31.08
2022-11-29T20:36:48.575Z,35.05
2022-11-29T20:39:40.356Z,43.13
2022-11-29T20:42:28.957Z,28.23
2022-11-29T20:45:06.730Z,26.50
2022-11-29T20:47:45.782Z,31.67
2022-11-29T20:50:26.282Z,48.05
2022-11-29T20:53:02.340Z,40.08
2022-11-29T20:55:29.633Z,38.95
2022-11-29T20:57:56.896Z,38.58
2022-11-29T21:00:24.394Z,41.55
2022-11-29T21:02:51.692Z,31.55
2022-11-29T21:05:19.256Z,35.97
2022-11-29T21:07:46.781Z,40.22
2022-11-29T21:10:17.100Z,29.85
2022-11-29T21:12:45.193Z,18.73
2022-11-29T21:15:14.490Z,20.15
2022-11-29T21:17:43.679Z,23.83
2022-11-29T21:20:24.361Z,28.95
2022-11-29T21:23:14.586Z,43.03
2022-11-29T21:25:45.751Z,38.72
2022-11-29T21:28:15.798Z,34.17
2022-11-29T21:30:44.169Z,31.15
2022-11-29T21:33:11.841Z,28.48
2022-11-29T21:35:40.067Z,22.02
2022-11-29T21:38:23.105Z,23.42
2022-11-29T21:40:51.802Z,16.15
2022-11-29T21:43:20.696Z,36.42
2022-11-29T21:45:49.970Z,28.67
2022-11-29T21:48:35.425Z,17.40
2022-11-29T21:51:09.475Z,13.40
2022-11-29T21:53:38.225Z,15.52
2022-11-29T21:56:08.760Z,21.63
2022-11-29T21:58:37.472Z,18.75
2022-11-29T22:01:18.818Z,22.75
2022-11-29T22:03:46.830Z,27.75
2022-11-29T22:06:20.194Z,32.40
2022-11-29T22:08:48.210Z,32.35
2022-11-29T22:11:31.369Z,33.55
2022-11-29T22:14:13.334Z,37.20
2022-11-29T22:16:43.538Z,39.63
2022-11-29T22:19:12.323Z,27.90
2022-11-29T22:21:41.923Z,22.23
2022-11-29T22:24:10.460Z,19.60
2022-11-29T22:26:38.530Z,18.13
2022-11-29T22:29:06.253Z,19.00
2022-11-29T22:31:34.996Z,21.42
2022-11-29T22:34:02.504Z,22.23
2022-11-29T22:36:29.700Z,32.22
2022-11-29T22:38:56.907Z,24.73
2022-11-29T22:41:24.223Z,16.98
2022-11-29T22:43:51.394Z,16.48
2022-11-29T22:46:22.428Z,11.77
2022-11-29T22:48:52.342Z,22.67
2022-11-29T22:51:25.956Z,12.18
2022-11-29T22:53:58.561Z,11.10
2022-11-29T22:56:29.315Z,8.15
2022-11-29T22:58:58.221Z,7.43
2022-11-29T23:01:28.371Z,7.57
2022-11-29T23:03:58.746Z,16.10
2022-11-29T23:06:36.113Z,15.07
2022-11-29T23:09:14.559Z,15.90
2022-11-29T23:11:43.964Z,14.20
2022-11-29T23:14:11.596Z,16.90
2022-11-29T23:16:39.154Z,13.88
2022-11-29T23:19:06.509Z,13.52
2022-11-29T23:21:37.509Z,15.85
2022-11-29T23:24:05.691Z,11.32
2022-11-29T23:26:39.821Z,18.23
2022-11-29T23:29:13.724Z,17.67
2022-11-29T23:31:41.375Z,12.02
2022-11-29T23:34:09.266Z,12.43
2022-11-29T23:36:36.344Z,9.20
2022-11-29T23:39:06.021Z,12.35
2022-11-29T23:41:35.646Z,13.68
2022-11-29T23:44:04.548Z,10.63
2022-11-29T23:46:32.205Z,8.60
2022-11-29T23:48:59.322Z,8.77
2022-11-29T23:51:26.467Z,17.63
2022-11-29T23:53:54.481Z,14.02
2022-11-29T23:56:22.548Z,21.35
2022-11-29T23:58:50.133Z,13.15
